sensor_id;sensor_type;location;lat;lon;timestamp;P1;durP1;ratioP1;P2;durP2;ratioP2
22849;SDS011;11591;44.792;10.358;2022-10-17T00:01:42;28.58;;;15.95;;
22849;SDS011;11591;44.792;10.358;2022-10-17T00:04:08;33.22;;;15.27;;
22849;SDS011;11591;44.792;10.358;2022-10-17T00:06:34;32.10;;;15.65;;
22849;SDS011;11591;44.792;10.358;2022-10-17T00:08:59;30.52;;;15.55;;
22849;SDS011;11591;44.792;10.358;2022-10-17T00:11:25;28.77;;;15.30;;
22849;SDS011;11591;44.792;10.358;2022-10-17T00:13:53;33.65;;;16.85;;
22849;SDS011;11591;44.792;10.358;2022-10-17T00:16:24;29.30;;;16.60;;
22849;SDS011;11591;44.792;10.358;2022-10-17T00:18:51;36.30;;;17.02;;
22849;SDS011;11591;44.792;10.358;2022-10-17T00:21:18;28.63;;;16.58;;
22849;SDS011;11591;44.792;10.358;2022-10-17T00:23:44;34.33;;;17.13;;
22849;SDS011;11591;44.792;10.358;2022-10-17T00:26:11;28.42;;;16.05;;
22849;SDS011;11591;44.792;10.358;2022-10-17T00:28:37;26.17;;;15.77;;
22849;SDS011;11591;44.792;10.358;2022-10-17T00:31:04;27.73;;;16.45;;
22849;SDS011;11591;44.792;10.358;2022-10-17T00:33:31;30.45;;;16.55;;
22849;SDS011;11591;44.792;10.358;2022-10-17T00:36:17;27.08;;;15.38;;
22849;SDS011;11591;44.792;10.358;2022-10-17T00:38:44;28.20;;;16.58;;
22849;SDS011;11591;44.792;10.358;2022-10-17T00:41:13;29.00;;;15.60;;
22849;SDS011;11591;44.792;10.358;2022-10-17T00:43:53;28.27;;;16.10;;
22849;SDS011;11591;44.792;10.358;2022-10-17T00:46:26;29.75;;;16.58;;
22849;SDS011;11591;44.792;10.358;2022-10-17T00:48:57;30.20;;;15.50;;
22849;SDS011;11591;44.792;10.358;2022-10-17T00:51:28;37.78;;;16.63;;
22849;SDS011;11591;44.792;10.358;2022-10-17T00:53:58;27.75;;;15.18;;
22849;SDS011;11591;44.792;10.358;2022-10-17T00:56:26;26.08;;;15.85;;
22849;SDS011;11591;44.792;10.358;2022-10-17T00:58:52;27.00;;;15.85;;
22849;SDS011;11591;44.792;10.358;2022-10-17T01:01:18;29.33;;;15.82;;
22849;SDS011;11591;44.792;10.358;2022-10-17T01:03:43;30.85;;;16.10;;
22849;SDS011;11591;44.792;10.358;2022-10-17T01:06:10;27.50;;;15.68;;
22849;SDS011;11591;44.792;10.358;2022-10-17T01:08:36;30.90;;;16.10;;
22849;SDS011;11591;44.792;10.358;2022-10-17T01:11:09;29.65;;;15.07;;
22849;SDS011;11591;44.792;10.358;2022-10-17T01:13:55;28.20;;;15.90;;
22849;SDS011;11591;44.792;10.358;2022-10-17T01:16:37;29.65;;;15.88;;
22849;SDS011;11591;44.792;10.358;2022-10-17T01:21:55;29.50;;;15.82;;
22849;SDS011;11591;44.792;10.358;2022-10-17T01:32:17;36.95;;;16.25;;
22849;SDS011;11591;44.792;10.358;2022-10-17T01:34:46;27.75;;;15.77;;
22849;SDS011;11591;44.792;10.358;2022-10-17T01:37:34;31.85;;;16.92;;
22849;SDS011;11591;44.792;10.358;2022-10-17T01:40:10;30.27;;;16.17;;
22849;SDS011;11591;44.792;10.358;2022-10-17T01:45:13;27.38;;;15.50;;
22849;SDS011;11591;44.792;10.358;2022-10-17T01:48:00;34.10;;;16.45;;
22849;SDS011;11591;44.792;10.358;2022-10-17T01:50:32;27.85;;;15.57;;
22849;SDS011;11591;44.792;10.358;2022-10-17T01:53:02;31.77;;;16.60;;
22849;SDS011;11591;44.792;10.358;2022-10-17T01:55:34;30.08;;;16.92;;
22849;SDS011;11591;44.792;10.358;2022-10-17T01:58:07;31.35;;;16.98;;
22849;SDS011;11591;44.792;10.358;2022-10-17T02:00:37;34.17;;;16.70;;
22849;SDS011;11591;44.792;10.358;2022-10-17T02:03:07;29.90;;;16.63;;
22849;SDS011;11591;44.792;10.358;2022-10-17T02:05:38;33.47;;;16.58;;
22849;SDS011;11591;44.792;10.358;2022-10-17T02:08:05;30.70;;;16.17;;
22849;SDS011;11591;44.792;10.358;2022-10-17T02:10:40;33.75;;;18.42;;
22849;SDS011;11591;44.792;10.358;2022-10-17T02:13:15;35.22;;;17.73;;
22849;SDS011;11591;44.792;10.358;2022-10-17T02:15:55;32.97;;;18.13;;
22849;SDS011;11591;44.792;10.358;2022-10-17T02:21:30;32.00;;;16.88;;
22849;SDS011;11591;44.792;10.358;2022-10-17T02:24:20;35.33;;;18.77;;
22849;SDS011;11591;44.792;10.358;2022-10-17T02:27:24;35.28;;;17.17;;
22849;SDS011;11591;44.792;10.358;2022-10-17T02:35:24;28.33;;;17.05;;
22849;SDS011;11591;44.792;10.358;2022-10-17T02:37:54;36.00;;;17.75;;
22849;SDS011;11591;44.792;10.358;2022-10-17T02:40:21;31.67;;;16.63;;
22849;SDS011;11591;44.792;10.358;2022-10-17T02:42:50;32.80;;;16.83;;
22849;SDS011;11591;44.792;10.358;2022-10-17T02:45:18;28.70;;;15.90;;
22849;SDS011;11591;44.792;10.358;2022-10-17T02:50:37;31.63;;;16.92;;
22849;SDS011;11591;44.792;10.358;2022-10-17T02:53:13;27.88;;;16.35;;
22849;SDS011;11591;44.792;10.358;2022-10-17T02:55:50;31.70;;;16.77;;
22849;SDS011;11591;44.792;10.358;2022-10-17T02:58:24;29.27;;;16.52;;
22849;SDS011;11591;44.792;10.358;2022-10-17T03:00:54;33.28;;;16.58;;
22849;SDS011;11591;44.792;10.358;2022-10-17T03:03:22;32.15;;;15.98;;
22849;SDS011;11591;44.792;10.358;2022-10-17T03:05:59;29.02;;;15.75;;
22849;SDS011;11591;44.792;10.358;2022-10-17T03:08:25;24.67;;;14.63;;
22849;SDS011;11591;44.792;10.358;2022-10-17T03:10:51;28.88;;;15.40;;
22849;SDS011;11591;44.792;10.358;2022-10-17T03:13:17;27.65;;;14.52;;
22849;SDS011;11591;44.792;10.358;2022-10-17T03:15:44;28.52;;;14.65;;
22849;SDS011;11591;44.792;10.358;2022-10-17T03:18:10;27.10;;;15.60;;
22849;SDS011;11591;44.792;10.358;2022-10-17T03:20:36;33.53;;;17.02;;
22849;SDS011;11591;44.792;10.358;2022-10-17T03:23:01;32.72;;;17.17;;
22849;SDS011;11591;44.792;10.358;2022-10-17T03:25:28;30.67;;;15.80;;
22849;SDS011;11591;44.792;10.358;2022-10-17T03:27:54;26.95;;;14.02;;
22849;SDS011;11591;44.792;10.358;2022-10-17T03:30:25;27.02;;;14.10;;
22849;SDS011;11591;44.792;10.358;2022-10-17T03:32:51;27.95;;;13.80;;
22849;SDS011;11591;44.792;10.358;2022-10-17T03:35:17;23.38;;;14.07;;
22849;SDS011;11591;44.792;10.358;2022-10-17T03:37:46;25.55;;;13.98;;
22849;SDS011;11591;44.792;10.358;2022-10-17T03:40:13;24.05;;;13.23;;
22849;SDS011;11591;44.792;10.358;2022-10-17T03:42:38;23.50;;;13.20;;
22849;SDS011;11591;44.792;10.358;2022-10-17T03:45:04;24.88;;;14.27;;
22849;SDS011;11591;44.792;10.358;2022-10-17T03:47:30;25.60;;;13.95;;
22849;SDS011;11591;44.792;10.358;2022-10-17T03:49:56;26.17;;;13.95;;
22849;SDS011;11591;44.792;10.358;2022-10-17T03:52:22;24.45;;;13.65;;
22849;SDS011;11591;44.792;10.358;2022-10-17T03:54:49;22.92;;;13.55;;
22849;SDS011;11591;44.792;10.358;2022-10-17T03:57:17;26.67;;;13.93;;
22849;SDS011;11591;44.792;10.358;2022-10-17T03:59:43;24.02;;;13.60;;
22849;SDS011;11591;44.792;10.358;2022-10-17T04:02:13;31.15;;;15.13;;
22849;SDS011;11591;44.792;10.358;2022-10-17T04:04:39;24.58;;;13.25;;
22849;SDS011;11591;44.792;10.358;2022-10-17T04:07:05;27.23;;;13.77;;
22849;SDS011;11591;44.792;10.358;2022-10-17T04:09:34;23.45;;;13.68;;
22849;SDS011;11591;44.792;10.358;2022-10-17T04:12:06;33.38;;;13.98;;
22849;SDS011;11591;44.792;10.358;2022-10-17T04:14:34;27.73;;;13.65;;
22849;SDS011;11591;44.792;10.358;2022-10-17T04:17:01;23.70;;;12.63;;
22849;SDS011;11591;44.792;10.358;2022-10-17T04:19:27;26.63;;;13.10;;
22849;SDS011;11591;44.792;10.358;2022-10-17T04:21:54;26.77;;;13.55;;
22849;SDS011;11591;44.792;10.358;2022-10-17T04:24:20;26.52;;;13.57;;
22849;SDS011;11591;44.792;10.358;2022-10-17T04:27:07;24.30;;;13.93;;
22849;SDS011;11591;44.792;10.358;2022-10-17T04:29:37;28.42;;;14.48;;
22849;SDS011;11591;44.792;10.358;2022-10-17T04:32:23;27.40;;;14.25;;
22849;SDS011;11591;44.792;10.358;2022-10-17T04:35:00;26.13;;;13.93;;
22849;SDS011;11591;44.792;10.358;2022-10-17T04:37:27;26.50;;;14.05;;
22849;SDS011;11591;44.792;10.358;2022-10-17T04:39:54;27.23;;;14.20;;
22849;SDS011;11591;44.792;10.358;2022-10-17T04:42:20;29.58;;;13.77;;
22849;SDS011;11591;44.792;10.358;2022-10-17T04:44:47;24.65;;;13.77;;
22849;SDS011;11591;44.792;10.358;2022-10-17T04:47:15;26.63;;;13.80;;
22849;SDS011;11591;44.792;10.358;2022-10-17T04:49:41;23.30;;;12.45;;
22849;SDS011;11591;44.792;10.358;2022-10-17T04:52:09;27.20;;;13.63;;
22849;SDS011;11591;44.792;10.358;2022-10-17T04:54:38;28.75;;;13.18;;
22849;SDS011;11591;44.792;10.358;2022-10-17T04:57:08;25.27;;;12.95;;
22849;SDS011;11591;44.792;10.358;2022-10-17T04:59:38;22.85;;;12.38;;
22849;SDS011;11591;44.792;10.358;2022-10-17T05:02:15;28.08;;;13.27;;
22849;SDS011;11591;44.792;10.358;2022-10-17T05:04:43;25.02;;;12.70;;
22849;SDS011;11591;44.792;10.358;2022-10-17T05:07:12;28.17;;;13.68;;
22849;SDS011;11591;44.792;10.358;2022-10-17T05:09:58;22.20;;;12.57;;
22849;SDS011;11591;44.792;10.358;2022-10-17T05:12:24;24.33;;;11.90;;
22849;SDS011;11591;44.792;10.358;2022-10-17T05:14:50;21.60;;;12.00;;
22849;SDS011;11591;44.792;10.358;2022-10-17T05:17:16;21.48;;;12.10;;
22849;SDS011;11591;44.792;10.358;2022-10-17T05:19:43;24.02;;;11.95;;
22849;SDS011;11591;44.792;10.358;2022-10-17T05:22:12;20.60;;;11.70;;
22849;SDS011;11591;44.792;10.358;2022-10-17T05:24:40;22.42;;;11.02;;
22849;SDS011;11591;44.792;10.358;2022-10-17T05:27:06;19.60;;;11.52;;
22849;SDS011;11591;44.792;10.358;2022-10-17T05:29:33;21.67;;;11.00;;
22849;SDS011;11591;44.792;10.358;2022-10-17T05:32:07;22.42;;;11.43;;
22849;SDS011;11591;44.792;10.358;2022-10-17T05:34:33;22.42;;;11.10;;
22849;SDS011;11591;44.792;10.358;2022-10-17T05:36:59;22.73;;;11.23;;
22849;SDS011;11591;44.792;10.358;2022-10-17T05:39:25;28.63;;;12.10;;
22849;SDS011;11591;44.792;10.358;2022-10-17T05:41:51;22.23;;;12.32;;
22849;SDS011;11591;44.792;10.358;2022-10-17T05:44:17;21.55;;;11.73;;
22849;SDS011;11591;44.792;10.358;2022-10-17T05:46:48;22.60;;;11.15;;
22849;SDS011;11591;44.792;10.358;2022-10-17T05:49:14;23.48;;;12.95;;
22849;SDS011;11591;44.792;10.358;2022-10-17T05:51:40;22.75;;;12.65;;
22849;SDS011;11591;44.792;10.358;2022-10-17T05:54:06;25.73;;;13.07;;
22849;SDS011;11591;44.792;10.358;2022-10-17T05:56:34;25.80;;;13.35;;
22849;SDS011;11591;44.792;10.358;2022-10-17T05:59:00;28.48;;;13.95;;
22849;SDS011;11591;44.792;10.358;2022-10-17T06:01:53;30.40;;;14.68;;
22849;SDS011;11591;44.792;10.358;2022-10-17T06:04:19;27.35;;;14.55;;
22849;SDS011;11591;44.792;10.358;2022-10-17T06:06:45;27.17;;;14.27;;
22849;SDS011;11591;44.792;10.358;2022-10-17T06:09:11;27.30;;;14.65;;
22849;SDS011;11591;44.792;10.358;2022-10-17T06:11:41;27.42;;;14.23;;
22849;SDS011;11591;44.792;10.358;2022-10-17T06:14:08;28.38;;;15.55;;
22849;SDS011;11591;44.792;10.358;2022-10-17T06:16:36;28.15;;;14.98;;
22849;SDS011;11591;44.792;10.358;2022-10-17T06:19:04;29.40;;;16.15;;
22849;SDS011;11591;44.792;10.358;2022-10-17T06:21:30;27.52;;;15.25;;
22849;SDS011;11591;44.792;10.358;2022-10-17T06:24:12;31.33;;;15.30;;
22849;SDS011;11591;44.792;10.358;2022-10-17T06:26:40;33.95;;;15.55;;
22849;SDS011;11591;44.792;10.358;2022-10-17T06:29:07;26.67;;;15.60;;
22849;SDS011;11591;44.792;10.358;2022-10-17T06:31:39;29.52;;;14.13;;
22849;SDS011;11591;44.792;10.358;2022-10-17T06:34:05;31.35;;;15.15;;
22849;SDS011;11591;44.792;10.358;2022-10-17T06:36:31;24.02;;;13.57;;
22849;SDS011;11591;44.792;10.358;2022-10-17T06:38:58;28.67;;;14.02;;
22849;SDS011;11591;44.792;10.358;2022-10-17T06:41:36;32.95;;;15.20;;
22849;SDS011;11591;44.792;10.358;2022-10-17T06:44:04;36.30;;;15.45;;
22849;SDS011;11591;44.792;10.358;2022-10-17T06:46:50;30.42;;;15.93;;
22849;SDS011;11591;44.792;10.358;2022-10-17T06:49:16;30.13;;;15.00;;
22849;SDS011;11591;44.792;10.358;2022-10-17T06:51:47;31.00;;;14.57;;
22849;SDS011;11591;44.792;10.358;2022-10-17T06:54:16;30.25;;;15.85;;
22849;SDS011;11591;44.792;10.358;2022-10-17T06:56:45;34.60;;;15.85;;
22849;SDS011;11591;44.792;10.358;2022-10-17T06:59:37;31.05;;;15.43;;
22849;SDS011;11591;44.792;10.358;2022-10-17T07:02:08;35.78;;;15.93;;
22849;SDS011;11591;44.792;10.358;2022-10-17T07:04:36;31.13;;;15.32;;
22849;SDS011;11591;44.792;10.358;2022-10-17T07:07:02;29.33;;;15.05;;
22849;SDS011;11591;44.792;10.358;2022-10-17T07:09:31;34.80;;;13.88;;
22849;SDS011;11591;44.792;10.358;2022-10-17T07:11:58;33.08;;;14.50;;
22849;SDS011;11591;44.792;10.358;2022-10-17T07:14:24;27.85;;;14.73;;
22849;SDS011;11591;44.792;10.358;2022-10-17T07:16:56;26.88;;;13.60;;
22849;SDS011;11591;44.792;10.358;2022-10-17T07:19:25;28.52;;;14.15;;
22849;SDS011;11591;44.792;10.358;2022-10-17T07:21:52;32.22;;;14.07;;
22849;SDS011;11591;44.792;10.358;2022-10-17T07:24:18;29.27;;;13.88;;
22849;SDS011;11591;44.792;10.358;2022-10-17T07:26:48;22.30;;;13.13;;
22849;SDS011;11591;44.792;10.358;2022-10-17T07:29:14;23.83;;;13.88;;
22849;SDS011;11591;44.792;10.358;2022-10-17T07:32:05;29.35;;;14.38;;
22849;SDS011;11591;44.792;10.358;2022-10-17T07:34:33;29.05;;;12.90;;
22849;SDS011;11591;44.792;10.358;2022-10-17T07:37:00;24.77;;;12.63;;
22849;SDS011;11591;44.792;10.358;2022-10-17T07:39:27;29.48;;;13.32;;
22849;SDS011;11591;44.792;10.358;2022-10-17T07:41:53;27.80;;;13.57;;
22849;SDS011;11591;44.792;10.358;2022-10-17T07:44:21;30.92;;;14.00;;
22849;SDS011;11591;44.792;10.358;2022-10-17T07:46:49;29.65;;;14.00;;
22849;SDS011;11591;44.792;10.358;2022-10-17T07:49:15;27.63;;;14.18;;
22849;SDS011;11591;44.792;10.358;2022-10-17T07:51:41;26.50;;;13.57;;
22849;SDS011;11591;44.792;10.358;2022-10-17T07:54:07;30.13;;;13.77;;
22849;SDS011;11591;44.792;10.358;2022-10-17T07:56:33;28.23;;;13.95;;
22849;SDS011;11591;44.792;10.358;2022-10-17T07:58:58;24.77;;;12.60;;
22849;SDS011;11591;44.792;10.358;2022-10-17T08:01:24;24.58;;;12.73;;
22849;SDS011;11591;44.792;10.358;2022-10-17T08:03:52;28.02;;;13.73;;
22849;SDS011;11591;44.792;10.358;2022-10-17T08:06:18;28.70;;;14.25;;
22849;SDS011;11591;44.792;10.358;2022-10-17T08:08:43;33.92;;;15.50;;
22849;SDS011;11591;44.792;10.358;2022-10-17T08:11:10;31.67;;;15.20;;
22849;SDS011;11591;44.792;10.358;2022-10-17T08:13:38;34.33;;;16.17;;
22849;SDS011;11591;44.792;10.358;2022-10-17T08:16:06;30.90;;;16.40;;
22849;SDS011;11591;44.792;10.358;2022-10-17T08:18:34;43.72;;;17.88;;
22849;SDS011;11591;44.792;10.358;2022-10-17T08:21:01;35.92;;;17.10;;
22849;SDS011;11591;44.792;10.358;2022-10-17T08:23:30;33.40;;;16.58;;
22849;SDS011;11591;44.792;10.358;2022-10-17T08:25:59;31.13;;;16.90;;
22849;SDS011;11591;44.792;10.358;2022-10-17T08:28:27;32.05;;;17.58;;
22849;SDS011;11591;44.792;10.358;2022-10-17T08:31:00;35.13;;;18.55;;
22849;SDS011;11591;44.792;10.358;2022-10-17T08:33:30;36.80;;;17.92;;
22849;SDS011;11591;44.792;10.358;2022-10-17T08:35:57;39.72;;;19.42;;
22849;SDS011;11591;44.792;10.358;2022-10-17T08:38:24;39.75;;;20.05;;
22849;SDS011;11591;44.792;10.358;2022-10-17T08:40:51;37.97;;;19.42;;
22849;SDS011;11591;44.792;10.358;2022-10-17T08:43:25;41.63;;;19.90;;
22849;SDS011;11591;44.792;10.358;2022-10-17T08:46:11;36.60;;;18.75;;
22849;SDS011;11591;44.792;10.358;2022-10-17T08:48:38;40.40;;;19.58;;
22849;SDS011;11591;44.792;10.358;2022-10-17T08:51:17;40.78;;;21.50;;
22849;SDS011;11591;44.792;10.358;2022-10-17T08:53:56;46.95;;;21.55;;
22849;SDS011;11591;44.792;10.358;2022-10-17T08:56:32;45.10;;;22.33;;
22849;SDS011;11591;44.792;10.358;2022-10-17T08:59:03;50.75;;;23.35;;
22849;SDS011;11591;44.792;10.358;2022-10-17T09:01:52;45.28;;;22.75;;
22849;SDS011;11591;44.792;10.358;2022-10-17T09:07:20;47.63;;;23.42;;
22849;SDS011;11591;44.792;10.358;2022-10-17T09:10:18;48.67;;;23.75;;
22849;SDS011;11591;44.792;10.358;2022-10-17T09:13:06;45.38;;;21.85;;
22849;SDS011;11591;44.792;10.358;2022-10-17T09:18:36;49.15;;;23.52;;
22849;SDS011;11591;44.792;10.358;2022-10-17T09:23:46;54.22;;;24.63;;
22849;SDS011;11591;44.792;10.358;2022-10-17T09:26:17;59.33;;;25.10;;
22849;SDS011;11591;44.792;10.358;2022-10-17T09:28:43;49.05;;;23.83;;
22849;SDS011;11591;44.792;10.358;2022-10-17T09:31:24;51.80;;;24.83;;
22849;SDS011;11591;44.792;10.358;2022-10-17T09:34:07;52.63;;;25.15;;
22849;SDS011;11591;44.792;10.358;2022-10-17T09:36:36;50.38;;;26.00;;
22849;SDS011;11591;44.792;10.358;2022-10-17T09:39:04;55.40;;;25.77;;
22849;SDS011;11591;44.792;10.358;2022-10-17T09:41:39;48.92;;;25.73;;
22849;SDS011;11591;44.792;10.358;2022-10-17T09:44:19;50.67;;;27.55;;
22849;SDS011;11591;44.792;10.358;2022-10-17T09:49:41;57.92;;;27.23;;
22849;SDS011;11591;44.792;10.358;2022-10-17T09:52:19;60.13;;;30.17;;
22849;SDS011;11591;44.792;10.358;2022-10-17T09:58:05;61.78;;;28.38;;
22849;SDS011;11591;44.792;10.358;2022-10-17T10:00:33;54.33;;;28.83;;
22849;SDS011;11591;44.792;10.358;2022-10-17T10:05:33;71.85;;;34.33;;
22849;SDS011;11591;44.792;10.358;2022-10-17T10:08:04;75.63;;;34.13;;
22849;SDS011;11591;44.792;10.358;2022-10-17T10:10:36;77.53;;;33.20;;
22849;SDS011;11591;44.792;10.358;2022-10-17T10:15:38;66.88;;;34.17;;
22849;SDS011;11591;44.792;10.358;2022-10-17T10:23:35;75.18;;;35.85;;
22849;SDS011;11591;44.792;10.358;2022-10-17T10:26:16;76.45;;;35.63;;
22849;SDS011;11591;44.792;10.358;2022-10-17T10:28:55;79.53;;;36.28;;
22849;SDS011;11591;44.792;10.358;2022-10-17T10:31:27;75.53;;;35.08;;
22849;SDS011;11591;44.792;10.358;2022-10-17T10:34:02;75.30;;;37.17;;
22849;SDS011;11591;44.792;10.358;2022-10-17T10:39:41;77.88;;;37.28;;
22849;SDS011;11591;44.792;10.358;2022-10-17T10:42:21;76.53;;;38.92;;
22849;SDS011;11591;44.792;10.358;2022-10-17T10:44:56;82.30;;;37.85;;
22849;SDS011;11591;44.792;10.358;2022-10-17T10:47:26;79.82;;;38.90;;
22849;SDS011;11591;44.792;10.358;2022-10-17T10:50:07;80.95;;;38.42;;
22849;SDS011;11591;44.792;10.358;2022-10-17T10:53:17;82.88;;;40.03;;
22849;SDS011;11591;44.792;10.358;2022-10-17T10:55:44;77.85;;;38.40;;
22849;SDS011;11591;44.792;10.358;2022-10-17T10:58:38;81.20;;;39.95;;
22849;SDS011;11591;44.792;10.358;2022-10-17T11:01:11;79.03;;;39.92;;
22849;SDS011;11591;44.792;10.358;2022-10-17T11:06:27;75.55;;;38.38;;
22849;SDS011;11591;44.792;10.358;2022-10-17T11:11:57;80.45;;;39.30;;
22849;SDS011;11591;44.792;10.358;2022-10-17T11:20:23;76.45;;;36.33;;
22849;SDS011;11591;44.792;10.358;2022-10-17T11:23:19;78.53;;;38.35;;
22849;SDS011;11591;44.792;10.358;2022-10-17T11:25:57;72.95;;;36.40;;
22849;SDS011;11591;44.792;10.358;2022-10-17T11:28:27;74.63;;;38.40;;
22849;SDS011;11591;44.792;10.358;2022-10-17T11:31:05;77.55;;;38.13;;
22849;SDS011;11591;44.792;10.358;2022-10-17T11:36:04;80.03;;;38.50;;
22849;SDS011;11591;44.792;10.358;2022-10-17T11:38:37;73.97;;;37.13;;
22849;SDS011;11591;44.792;10.358;2022-10-17T11:41:12;71.68;;;35.45;;
22849;SDS011;11591;44.792;10.358;2022-10-17T11:47:45;66.72;;;33.58;;
22849;SDS011;11591;44.792;10.358;2022-10-17T11:50:10;70.18;;;34.60;;
22849;SDS011;11591;44.792;10.358;2022-10-17T11:55:30;58.08;;;31.58;;
22849;SDS011;11591;44.792;10.358;2022-10-17T12:00:54;55.70;;;29.52;;
22849;SDS011;11591;44.792;10.358;2022-10-17T12:11:57;49.20;;;26.80;;
22849;SDS011;11591;44.792;10.358;2022-10-17T12:17:53;44.88;;;24.17;;
22849;SDS011;11591;44.792;10.358;2022-10-17T12:25:21;45.05;;;23.10;;
22849;SDS011;11591;44.792;10.358;2022-10-17T12:28:09;45.65;;;23.60;;
22849;SDS011;11591;44.792;10.358;2022-10-17T12:30:47;43.08;;;23.95;;
22849;SDS011;11591;44.792;10.358;2022-10-17T12:33:19;45.30;;;23.70;;
22849;SDS011;11591;44.792;10.358;2022-10-17T12:35:50;45.33;;;26.52;;
22849;SDS011;11591;44.792;10.358;2022-10-17T12:38:36;50.40;;;26.02;;
22849;SDS011;11591;44.792;10.358;2022-10-17T12:41:02;45.92;;;26.15;;
22849;SDS011;11591;44.792;10.358;2022-10-17T12:45:58;43.08;;;23.55;;
22849;SDS011;11591;44.792;10.358;2022-10-17T12:51:12;43.05;;;22.52;;
22849;SDS011;11591;44.792;10.358;2022-10-17T12:56:18;44.83;;;24.92;;
22849;SDS011;11591;44.792;10.358;2022-10-17T12:58:47;44.25;;;23.35;;
22849;SDS011;11591;44.792;10.358;2022-10-17T13:01:18;42.72;;;23.38;;
22849;SDS011;11591;44.792;10.358;2022-10-17T13:03:54;42.83;;;21.88;;
22849;SDS011;11591;44.792;10.358;2022-10-17T13:06:25;43.22;;;22.33;;
22849;SDS011;11591;44.792;10.358;2022-10-17T13:08:57;42.05;;;21.92;;
22849;SDS011;11591;44.792;10.358;2022-10-17T13:11:26;35.72;;;18.42;;
22849;SDS011;11591;44.792;10.358;2022-10-17T13:13:55;44.72;;;20.65;;
22849;SDS011;11591;44.792;10.358;2022-10-17T13:19:01;35.95;;;19.35;;
22849;SDS011;11591;44.792;10.358;2022-10-17T13:21:48;31.23;;;18.30;;
22849;SDS011;11591;44.792;10.358;2022-10-17T13:24:30;36.13;;;19.52;;
22849;SDS011;11591;44.792;10.358;2022-10-17T13:27:01;32.88;;;20.00;;
22849;SDS011;11591;44.792;10.358;2022-10-17T13:29:29;34.38;;;20.73;;
22849;SDS011;11591;44.792;10.358;2022-10-17T13:32:00;34.13;;;19.33;;
22849;SDS011;11591;44.792;10.358;2022-10-17T13:34:28;32.67;;;20.13;;
22849;SDS011;11591;44.792;10.358;2022-10-17T13:36:57;29.25;;;18.02;;
22849;SDS011;11591;44.792;10.358;2022-10-17T13:39:27;33.67;;;17.33;;
22849;SDS011;11591;44.792;10.358;2022-10-17T13:42:00;30.65;;;19.02;;
22849;SDS011;11591;44.792;10.358;2022-10-17T13:44:27;27.40;;;17.50;;
22849;SDS011;11591;44.792;10.358;2022-10-17T13:46:59;29.92;;;18.33;;
22849;SDS011;11591;44.792;10.358;2022-10-17T13:49:30;28.10;;;17.55;;
22849;SDS011;11591;44.792;10.358;2022-10-17T13:51:58;30.92;;;18.92;;
22849;SDS011;11591;44.792;10.358;2022-10-17T13:57:00;28.73;;;18.17;;
22849;SDS011;11591;44.792;10.358;2022-10-17T13:59:32;24.98;;;16.90;;
22849;SDS011;11591;44.792;10.358;2022-10-17T14:02:00;26.48;;;16.20;;
22849;SDS011;11591;44.792;10.358;2022-10-17T14:04:26;21.38;;;14.63;;
22849;SDS011;11591;44.792;10.358;2022-10-17T14:06:52;24.08;;;14.68;;
22849;SDS011;11591;44.792;10.358;2022-10-17T14:09:27;22.13;;;15.60;;
22849;SDS011;11591;44.792;10.358;2022-10-17T14:11:56;23.65;;;16.35;;
22849;SDS011;11591;44.792;10.358;2022-10-17T14:14:22;27.42;;;16.50;;
22849;SDS011;11591;44.792;10.358;2022-10-17T14:16:50;26.48;;;15.82;;
22849;SDS011;11591;44.792;10.358;2022-10-17T14:19:32;26.17;;;16.73;;
22849;SDS011;11591;44.792;10.358;2022-10-17T14:25:04;28.58;;;16.60;;
22849;SDS011;11591;44.792;10.358;2022-10-17T14:30:00;26.42;;;17.52;;
22849;SDS011;11591;44.792;10.358;2022-10-17T14:32:30;21.75;;;15.02;;
22849;SDS011;11591;44.792;10.358;2022-10-17T14:35:00;23.25;;;15.75;;
22849;SDS011;11591;44.792;10.358;2022-10-17T14:37:47;30.38;;;16.15;;
22849;SDS011;11591;44.792;10.358;2022-10-17T14:40:23;25.98;;;15.75;;
22849;SDS011;11591;44.792;10.358;2022-10-17T14:42:50;28.00;;;15.60;;
22849;SDS011;11591;44.792;10.358;2022-10-17T14:45:21;21.58;;;13.77;;
22849;SDS011;11591;44.792;10.358;2022-10-17T14:48:00;22.92;;;15.32;;
22849;SDS011;11591;44.792;10.358;2022-10-17T14:50:33;27.00;;;14.95;;
22849;SDS011;11591;44.792;10.358;2022-10-17T14:53:21;23.08;;;14.30;;
22849;SDS011;11591;44.792;10.358;2022-10-17T14:55:59;23.20;;;13.60;;
22849;SDS011;11591;44.792;10.358;2022-10-17T14:58:27;25.80;;;14.85;;
22849;SDS011;11591;44.792;10.358;2022-10-17T15:01:13;29.15;;;14.48;;
22849;SDS011;11591;44.792;10.358;2022-10-17T15:03:39;24.50;;;14.40;;
22849;SDS011;11591;44.792;10.358;2022-10-17T15:06:09;29.55;;;15.20;;
22849;SDS011;11591;44.792;10.358;2022-10-17T15:08:44;31.88;;;18.00;;
22849;SDS011;11591;44.792;10.358;2022-10-17T15:11:10;35.03;;;18.08;;
22849;SDS011;11591;44.792;10.358;2022-10-17T15:13:36;31.40;;;16.38;;
22849;SDS011;11591;44.792;10.358;2022-10-17T15:16:04;26.50;;;15.27;;
22849;SDS011;11591;44.792;10.358;2022-10-17T15:18:37;25.13;;;14.05;;
22849;SDS011;11591;44.792;10.358;2022-10-17T15:21:07;21.38;;;13.07;;
22849;SDS011;11591;44.792;10.358;2022-10-17T15:23:37;20.85;;;12.68;;
22849;SDS011;11591;44.792;10.358;2022-10-17T15:26:02;19.58;;;12.07;;
22849;SDS011;11591;44.792;10.358;2022-10-17T15:28:35;22.27;;;12.52;;
22849;SDS011;11591;44.792;10.358;2022-10-17T15:31:04;21.25;;;12.48;;
22849;SDS011;11591;44.792;10.358;2022-10-17T15:33:41;21.73;;;12.18;;
22849;SDS011;11591;44.792;10.358;2022-10-17T15:36:30;22.90;;;12.95;;
22849;SDS011;11591;44.792;10.358;2022-10-17T15:38:59;20.02;;;12.40;;
22849;SDS011;11591;44.792;10.358;2022-10-17T15:41:28;20.25;;;11.43;;
22849;SDS011;11591;44.792;10.358;2022-10-17T15:43:56;21.48;;;12.02;;
22849;SDS011;11591;44.792;10.358;2022-10-17T15:46:26;27.00;;;13.40;;
22849;SDS011;11591;44.792;10.358;2022-10-17T15:48:53;20.08;;;14.20;;
22849;SDS011;11591;44.792;10.358;2022-10-17T15:51:21;24.63;;;13.27;;
22849;SDS011;11591;44.792;10.358;2022-10-17T15:53:50;21.98;;;13.40;;
22849;SDS011;11591;44.792;10.358;2022-10-17T15:56:27;23.50;;;13.63;;
22849;SDS011;11591;44.792;10.358;2022-10-17T15:59:04;21.85;;;13.40;;
22849;SDS011;11591;44.792;10.358;2022-10-17T16:01:35;22.30;;;12.50;;
22849;SDS011;11591;44.792;10.358;2022-10-17T16:04:03;28.30;;;13.23;;
22849;SDS011;11591;44.792;10.358;2022-10-17T16:06:29;20.52;;;11.73;;
22849;SDS011;11591;44.792;10.358;2022-10-17T16:08:54;22.40;;;12.18;;
22849;SDS011;11591;44.792;10.358;2022-10-17T16:13:59;21.67;;;12.30;;
22849;SDS011;11591;44.792;10.358;2022-10-17T16:16:27;20.15;;;12.35;;
22849;SDS011;11591;44.792;10.358;2022-10-17T16:18:53;23.45;;;11.88;;
22849;SDS011;11591;44.792;10.358;2022-10-17T16:21:19;25.88;;;12.05;;
22849;SDS011;11591;44.792;10.358;2022-10-17T16:23:49;25.85;;;12.73;;
22849;SDS011;11591;44.792;10.358;2022-10-17T16:26:15;23.88;;;13.85;;